sensor_id;sensor_type;location;lat;lon;timestamp;temperature;humidity
36586;DHT22;22591;48.314;11.562;2023-04-24T00:00:14;10.80;99.90
36586;DHT22;22591;48.314;11.562;2023-04-24T00:02:40;10.80;99.90
36586;DHT22;22591;48.314;11.562;2023-04-24T00:05:07;10.80;99.90
36586;DHT22;22591;48.314;11.562;2023-04-24T00:07:33;10.70;99.90
36586;DHT22;22591;48.314;11.562;2023-04-24T00:09:59;10.70;99.90
36586;DHT22;22591;48.314;11.562;2023-04-24T00:12:25;10.70;99.90
36586;DHT22;22591;48.314;11.562;2023-04-24T00:14:52;10.70;99.90
36586;DHT22;22591;48.314;11.562;2023-04-24T00:17:17;10.60;99.90
36586;DHT22;22591;48.314;11.562;2023-04-24T00:19:47;10.60;99.90
36586;DHT22;22591;48.314;11.562;2023-04-24T00:22:13;10.50;99.90
36586;DHT22;22591;48.314;11.562;2023-04-24T00:24:40;10.50;99.90
36586;DHT22;22591;48.314;11.562;2023-04-24T00:27:05;10.50;99.90
36586;DHT22;22591;48.314;11.562;2023-04-24T00:29:31;10.50;99.90
36586;DHT22;22591;48.314;11.562;2023-04-24T00:31:57;10.50;99.90
36586;DHT22;22591;48.314;11.562;2023-04-24T00:34:23;10.50;99.90
36586;DHT22;22591;48.314;11.562;2023-04-24T00:36:48;10.40;99.90
36586;DHT22;22591;48.314;11.562;2023-04-24T00:39:20;10.40;99.90
36586;DHT22;22591;48.314;11.562;2023-04-24T00:41:46;10.30;99.90
36586;DHT22;22591;48.314;11.562;2023-04-24T00:44:12;10.40;99.90
36586;DHT22;22591;48.314;11.562;2023-04-24T00:46:38;10.30;99.90
36586;DHT22;22591;48.314;11.562;2023-04-24T00:49:05;10.30;99.90
36586;DHT22;22591;48.314;11.562;2023-04-24T00:51:31;10.30;99.90
36586;DHT22;22591;48.314;11.562;2023-04-24T00:54:00;10.30;99.90
36586;DHT22;22591;48.314;11.562;2023-04-24T00:56:27;10.30;99.90
36586;DHT22;22591;48.314;11.562;2023-04-24T00:58:53;10.30;99.90
36586;DHT22;22591;48.314;11.562;2023-04-24T01:01:22;10.20;99.90
36586;DHT22;22591;48.314;11.562;2023-04-24T01:03:49;10.30;99.90
36586;DHT22;22591;48.314;11.562;2023-04-24T01:06:16;10.30;99.90
36586;DHT22;22591;48.314;11.562;2023-04-24T01:08:42;10.20;99.90
36586;DHT22;22591;48.314;11.562;2023-04-24T01:11:08;10.20;99.90
36586;DHT22;22591;48.314;11.562;2023-04-24T01:13:34;10.20;99.90
36586;DHT22;22591;48.314;11.562;2023-04-24T01:16:00;10.20;99.90
36586;DHT22;22591;48.314;11.562;2023-04-24T01:18:26;10.20;99.90
36586;DHT22;22591;48.314;11.562;2023-04-24T01:20:54;10.10;99.90
36586;DHT22;22591;48.314;11.562;2023-04-24T01:23:21;10.10;99.90
36586;DHT22;22591;48.314;11.562;2023-04-24T01:25:48;10.10;99.90
36586;DHT22;22591;48.314;11.562;2023-04-24T01:28:14;10.10;99.90
36586;DHT22;22591;48.314;11.562;2023-04-24T01:30:40;10.10;99.90
36586;DHT22;22591;48.314;11.562;2023-04-24T01:33:05;10.10;99.90
36586;DHT22;22591;48.314;11.562;2023-04-24T01:35:31;10.10;99.90
36586;DHT22;22591;48.314;11.562;2023-04-24T01:37:57;10.00;99.90
36586;DHT22;22591;48.314;11.562;2023-04-24T01:40:23;10.10;99.90
36586;DHT22;22591;48.314;11.562;2023-04-24T01:42:49;10.00;99.90
36586;DHT22;22591;48.314;11.562;2023-04-24T01:45:14;10.00;99.90
36586;DHT22;22591;48.314;11.562;2023-04-24T01:47:40;10.00;99.90
36586;DHT22;22591;48.314;11.562;2023-04-24T01:50:06;10.00;99.90
36586;DHT22;22591;48.314;11.562;2023-04-24T01:52:32;10.00;99.90
36586;DHT22;22591;48.314;11.562;2023-04-24T01:55:04;10.00;99.90
36586;DHT22;22591;48.314;11.562;2023-04-24T01:57:31;9.90;99.90
36586;DHT22;22591;48.314;11.562;2023-04-24T01:59:57;9.90;99.90
36586;DHT22;22591;48.314;11.562;2023-04-24T02:02:23;9.90;99.90
36586;DHT22;22591;48.314;11.562;2023-04-24T02:04:55;9.90;99.90
36586;DHT22;22591;48.314;11.562;2023-04-24T02:07:21;9.80;99.90
36586;DHT22;22591;48.314;11.562;2023-04-24T02:09:46;9.80;99.90
36586;DHT22;22591;48.314;11.562;2023-04-24T02:12:12;9.80;99.90
36586;DHT22;22591;48.314;11.562;2023-04-24T02:14:37;9.80;99.90
36586;DHT22;22591;48.314;11.562;2023-04-24T02:17:03;9.80;99.90
36586;DHT22;22591;48.314;11.562;2023-04-24T02:19:30;9.80;99.90
36586;DHT22;22591;48.314;11.562;2023-04-24T02:21:56;9.80;99.90
36586;DHT22;22591;48.314;11.562;2023-04-24T02:24:21;9.70;99.90
36586;DHT22;22591;48.314;11.562;2023-04-24T02:26:47;9.70;99.90
36586;DHT22;22591;48.314;11.562;2023-04-24T02:29:12;9.80;99.90
36586;DHT22;22591;48.314;11.562;2023-04-24T02:31:38;9.70;99.90
36586;DHT22;22591;48.314;11.562;2023-04-24T02:34:03;9.70;99.90
36586;DHT22;22591;48.314;11.562;2023-04-24T02:36:29;9.70;99.90
36586;DHT22;22591;48.314;11.562;2023-04-24T02:38:55;9.70;99.90
36586;DHT22;22591;48.314;11.562;2023-04-24T02:41:21;9.70;99.90
36586;DHT22;22591;48.314;11.562;2023-04-24T02:43:46;9.70;99.90
36586;DHT22;22591;48.314;11.562;2023-04-24T02:46:12;9.70;99.90
36586;DHT22;22591;48.314;11.562;2023-04-24T02:48:37;9.70;99.90
36586;DHT22;22591;48.314;11.562;2023-04-24T02:51:03;9.70;99.90
36586;DHT22;22591;48.314;11.562;2023-04-24T02:53:29;9.70;99.90
36586;DHT22;22591;48.314;11.562;2023-04-24T02:55:56;9.70;99.90
36586;DHT22;22591;48.314;11.562;2023-04-24T02:58:21;9.80;99.90
36586;DHT22;22591;48.314;11.562;2023-04-24T03:00:47;9.80;99.90
36586;DHT22;22591;48.314;11.562;2023-04-24T03:03:13;9.80;99.90
36586;DHT22;22591;48.314;11.562;2023-04-24T03:05:39;9.80;99.90
36586;DHT22;22591;48.314;11.562;2023-04-24T03:08:05;9.80;99.90
36586;DHT22;22591;48.314;11.562;2023-04-24T03:10:31;9.70;99.90
36586;DHT22;22591;48.314;11.562;2023-04-24T03:12:57;9.70;99.90
36586;DHT22;22591;48.314;11.562;2023-04-24T03:15:23;9.70;99.90
36586;DHT22;22591;48.314;11.562;2023-04-24T03:17:48;9.70;99.90
36586;DHT22;22591;48.314;11.562;2023-04-24T03:20:15;9.70;99.90
36586;DHT22;22591;48.314;11.562;2023-04-24T03:22:41;9.70;99.90
36586;DHT22;22591;48.314;11.562;2023-04-24T03:25:07;9.70;99.90
36586;DHT22;22591;48.314;11.562;2023-04-24T03:27:34;9.70;99.90
36586;DHT22;22591;48.314;11.562;2023-04-24T03:29:59;9.70;99.90
36586;DHT22;22591;48.314;11.562;2023-04-24T03:32:26;9.70;99.90
36586;DHT22;22591;48.314;11.562;2023-04-24T03:34:51;9.60;99.90
36586;DHT22;22591;48.314;11.562;2023-04-24T03:37:17;9.60;99.90
36586;DHT22;22591;48.314;11.562;2023-04-24T03:39:43;9.60;99.90
36586;DHT22;22591;48.314;11.562;2023-04-24T03:42:08;9.60;99.90
36586;DHT22;22591;48.314;11.562;2023-04-24T03:44:34;9.70;99.90
36586;DHT22;22591;48.314;11.562;2023-04-24T03:47:00;9.60;99.90
36586;DHT22;22591;48.314;11.562;2023-04-24T03:49:26;9.60;99.90
36586;DHT22;22591;48.314;11.562;2023-04-24T03:51:51;9.60;99.90
36586;DHT22;22591;48.314;11.562;2023-04-24T03:54:18;9.60;99.90
36586;DHT22;22591;48.314;11.562;2023-04-24T03:56:44;9.60;99.90
36586;DHT22;22591;48.314;11.562;2023-04-24T03:59:09;9.60;99.90
36586;DHT22;22591;48.314;11.562;2023-04-24T04:01:35;9.60;99.90
36586;DHT22;22591;48.314;11.562;2023-04-24T04:04:08;9.60;99.90
36586;DHT22;22591;48.314;11.562;2023-04-24T04:06:33;9.60;99.90
36586;DHT22;22591;48.314;11.562;2023-04-24T04:08:59;9.60;99.90
36586;DHT22;22591;48.314;11.562;2023-04-24T04:11:25;9.60;99.90
36586;DHT22;22591;48.314;11.562;2023-04-24T04:13:51;9.60;99.90
36586;DHT22;22591;48.314;11.562;2023-04-24T04:16:16;9.60;99.90
36586;DHT22;22591;48.314;11.562;2023-04-24T04:18:43;9.50;99.90
36586;DHT22;22591;48.314;11.562;2023-04-24T04:21:08;9.50;99.90
36586;DHT22;22591;48.314;11.562;2023-04-24T04:23:34;9.50;99.90
36586;DHT22;22591;48.314;11.562;2023-04-24T04:26:00;9.50;99.90
36586;DHT22;22591;48.314;11.562;2023-04-24T04:28:26;9.50;99.90
36586;DHT22;22591;48.314;11.562;2023-04-24T04:30:52;9.60;99.90
36586;DHT22;22591;48.314;11.562;2023-04-24T04:33:21;9.60;99.90
36586;DHT22;22591;48.314;11.562;2023-04-24T04:35:47;9.60;99.90
36586;DHT22;22591;48.314;11.562;2023-04-24T04:38:18;9.60;99.90
36586;DHT22;22591;48.314;11.562;2023-04-24T04:40:44;9.50;99.90
36586;DHT22;22591;48.314;11.562;2023-04-24T04:43:09;9.50;99.90
36586;DHT22;22591;48.314;11.562;2023-04-24T04:45:36;9.50;99.90
36586;DHT22;22591;48.314;11.562;2023-04-24T04:48:02;9.50;99.90
36586;DHT22;22591;48.314;11.562;2023-04-24T04:50:28;9.50;99.90
36586;DHT22;22591;48.314;11.562;2023-04-24T04:52:54;9.50;99.90
36586;DHT22;22591;48.314;11.562;2023-04-24T04:55:20;9.50;99.90
36586;DHT22;22591;48.314;11.562;2023-04-24T04:57:46;9.50;99.90
36586;DHT22;22591;48.314;11.562;2023-04-24T05:00:12;9.40;99.90
36586;DHT22;22591;48.314;11.562;2023-04-24T05:02:40;9.50;99.90
36586;DHT22;22591;48.314;11.562;2023-04-24T05:05:07;9.50;99.90
36586;DHT22;22591;48.314;11.562;2023-04-24T05:07:33;9.50;99.90
36586;DHT22;22591;48.314;11.562;2023-04-24T05:09:58;9.50;99.90
36586;DHT22;22591;48.314;11.562;2023-04-24T05:12:24;9.60;99.90
36586;DHT22;22591;48.314;11.562;2023-04-24T05:14:50;9.60;99.90
36586;DHT22;22591;48.314;11.562;2023-04-24T05:17:15;9.60;99.90
36586;DHT22;22591;48.314;11.562;2023-04-24T05:19:41;9.60;99.90
36586;DHT22;22591;48.314;11.562;2023-04-24T05:22:07;9.60;99.90
36586;DHT22;22591;48.314;11.562;2023-04-24T05:24:33;9.70;99.90
36586;DHT22;22591;48.314;11.562;2023-04-24T05:26:59;9.70;99.90
36586;DHT22;22591;48.314;11.562;2023-04-24T05:29:25;9.70;99.90
36586;DHT22;22591;48.314;11.562;2023-04-24T05:31:51;9.90;99.90
36586;DHT22;22591;48.314;11.562;2023-04-24T05:34:17;10.00;99.90
36586;DHT22;22591;48.314;11.562;2023-04-24T05:36:43;10.00;99.90
36586;DHT22;22591;48.314;11.562;2023-04-24T05:39:09;10.10;99.90
36586;DHT22;22591;48.314;11.562;2023-04-24T05:41:34;10.30;99.90
36586;DHT22;22591;48.314;11.562;2023-04-24T05:44:00;10.40;99.90
36586;DHT22;22591;48.314;11.562;2023-04-24T05:46:26;10.50;99.90
36586;DHT22;22591;48.314;11.562;2023-04-24T05:48:51;10.50;99.90
36586;DHT22;22591;48.314;11.562;2023-04-24T05:51:17;10.50;99.90
36586;DHT22;22591;48.314;11.562;2023-04-24T05:53:42;10.50;99.90
36586;DHT22;22591;48.314;11.562;2023-04-24T05:56:08;10.60;99.90
36586;DHT22;22591;48.314;11.562;2023-04-24T05:58:34;10.60;99.90
36586;DHT22;22591;48.314;11.562;2023-04-24T06:00:59;10.70;99.90
36586;DHT22;22591;48.314;11.562;2023-04-24T06:03:26;10.70;99.90
36586;DHT22;22591;48.314;11.562;2023-04-24T06:05:52;10.70;99.90
36586;DHT22;22591;48.314;11.562;2023-04-24T06:08:18;10.80;99.90
36586;DHT22;22591;48.314;11.562;2023-04-24T06:10:44;10.80;99.90
36586;DHT22;22591;48.314;11.562;2023-04-24T06:13:10;10.80;99.90
36586;DHT22;22591;48.314;11.562;2023-04-24T06:15:36;11.00;99.90
36586;DHT22;22591;48.314;11.562;2023-04-24T06:18:02;11.10;99.90
36586;DHT22;22591;48.314;11.562;2023-04-24T06:20:28;11.30;99.90
36586;DHT22;22591;48.314;11.562;2023-04-24T06:22:54;11.50;99.90
36586;DHT22;22591;48.314;11.562;2023-04-24T06:25:20;11.70;99.90
36586;DHT22;22591;48.314;11.562;2023-04-24T06:27:45;11.90;99.90
36586;DHT22;22591;48.314;11.562;2023-04-24T06:30:11;12.00;99.90
36586;DHT22;22591;48.314;11.562;2023-04-24T06:32:37;12.30;99.90
36586;DHT22;22591;48.314;11.562;2023-04-24T06:35:03;12.40;99.90
36586;DHT22;22591;48.314;11.562;2023-04-24T06:37:29;12.50;99.90
36586;DHT22;22591;48.314;11.562;2023-04-24T06:39:55;12.50;99.90
36586;DHT22;22591;48.314;11.562;2023-04-24T06:42:20;12.50;99.90
36586;DHT22;22591;48.314;11.562;2023-04-24T06:44:47;12.50;99.90
36586;DHT22;22591;48.314;11.562;2023-04-24T06:47:13;12.40;99.90
36586;DHT22;22591;48.314;11.562;2023-04-24T06:49:39;12.20;99.90
36586;DHT22;22591;48.314;11.562;2023-04-24T06:52:05;12.30;99.90
36586;DHT22;22591;48.314;11.562;2023-04-24T06:54:31;12.30;99.90
36586;DHT22;22591;48.314;11.562;2023-04-24T06:56:57;12.20;99.90
36586;DHT22;22591;48.314;11.562;2023-04-24T06:59:26;12.20;99.90
36586;DHT22;22591;48.314;11.562;2023-04-24T07:01:51;12.40;99.90
36586;DHT22;22591;48.314;11.562;2023-04-24T07:04:17;12.50;99.90
36586;DHT22;22591;48.314;11.562;2023-04-24T07:06:47;12.80;99.90
36586;DHT22;22591;48.314;11.562;2023-04-24T07:09:12;13.10;99.90
36586;DHT22;22591;48.314;11.562;2023-04-24T07:11:44;13.30;99.90
36586;DHT22;22591;48.314;11.562;2023-04-24T07:14:10;13.40;99.90
36586;DHT22;22591;48.314;11.562;2023-04-24T07:16:35;13.40;99.90
36586;DHT22;22591;48.314;11.562;2023-04-24T07:19:01;13.50;99.90
36586;DHT22;22591;48.314;11.562;2023-04-24T07:21:27;13.40;99.90
36586;DHT22;22591;48.314;11.562;2023-04-24T07:23:53;13.70;99.90
36586;DHT22;22591;48.314;11.562;2023-04-24T07:26:19;14.00;99.90
36586;DHT22;22591;48.314;11.562;2023-04-24T07:28:46;14.00;99.90
36586;DHT22;22591;48.314;11.562;2023-04-24T07:31:12;13.90;99.90
36586;DHT22;22591;48.314;11.562;2023-04-24T07:33:37;14.10;99.90
36586;DHT22;22591;48.314;11.562;2023-04-24T07:36:03;14.00;99.90
36586;DHT22;22591;48.314;11.562;2023-04-24T07:38:30;13.90;99.90
36586;DHT22;22591;48.314;11.562;2023-04-24T07:40:55;13.80;99.90
36586;DHT22;22591;48.314;11.562;2023-04-24T07:43:21;13.80;99.90
36586;DHT22;22591;48.314;11.562;2023-04-24T07:45:47;13.70;99.90
36586;DHT22;22591;48.314;11.562;2023-04-24T07:48:13;13.50;99.90
36586;DHT22;22591;48.314;11.562;2023-04-24T07:50:41;13.50;99.90
36586;DHT22;22591;48.314;11.562;2023-04-24T07:53:07;13.70;99.90
36586;DHT22;22591;48.314;11.562;2023-04-24T07:55:33;14.00;99.90
36586;DHT22;22591;48.314;11.562;2023-04-24T07:57:58;13.90;99.90
36586;DHT22;22591;48.314;11.562;2023-04-24T08:00:24;13.60;99.90
36586;DHT22;22591;48.314;11.562;2023-04-24T08:02:49;13.10;99.90
36586;DHT22;22591;48.314;11.562;2023-04-24T08:05:15;12.80;99.90
36586;DHT22;22591;48.314;11.562;2023-04-24T08:07:41;12.60;99.90
36586;DHT22;22591;48.314;11.562;2023-04-24T08:10:09;12.30;99.90
36586;DHT22;22591;48.314;11.562;2023-04-24T08:12:35;12.20;99.90
36586;DHT22;22591;48.314;11.562;2023-04-24T08:15:01;12.20;99.90
36586;DHT22;22591;48.314;11.562;2023-04-24T08:17:26;12.20;99.90
36586;DHT22;22591;48.314;11.562;2023-04-24T08:19:52;12.10;99.90
36586;DHT22;22591;48.314;11.562;2023-04-24T08:22:24;12.10;99.90
36586;DHT22;22591;48.314;11.562;2023-04-24T08:24:49;12.10;99.90
36586;DHT22;22591;48.314;11.562;2023-04-24T08:27:15;12.10;99.90
36586;DHT22;22591;48.314;11.562;2023-04-24T08:29:41;12.00;99.90
36586;DHT22;22591;48.314;11.562;2023-04-24T08:32:06;12.00;99.90
36586;DHT22;22591;48.314;11.562;2023-04-24T08:34:32;11.80;99.90
36586;DHT22;22591;48.314;11.562;2023-04-24T08:36:57;11.70;99.90
36586;DHT22;22591;48.314;11.562;2023-04-24T08:39:23;11.60;99.90
36586;DHT22;22591;48.314;11.562;2023-04-24T08:41:48;11.60;99.90
36586;DHT22;22591;48.314;11.562;2023-04-24T08:44:15;11.70;99.90
36586;DHT22;22591;48.314;11.562;2023-04-24T08:46:43;11.70;99.90
36586;DHT22;22591;48.314;11.562;2023-04-24T08:49:09;11.90;99.90
36586;DHT22;22591;48.314;11.562;2023-04-24T08:51:36;12.00;99.90
36586;DHT22;22591;48.314;11.562;2023-04-24T08:54:02;12.30;99.90
36586;DHT22;22591;48.314;11.562;2023-04-24T08:56:29;12.60;99.90
36586;DHT22;22591;48.314;11.562;2023-04-24T08:58:56;13.20;99.90
36586;DHT22;22591;48.314;11.562;2023-04-24T09:01:23;13.60;99.90
36586;DHT22;22591;48.314;11.562;2023-04-24T09:03:50;13.90;99.90
36586;DHT22;22591;48.314;11.562;2023-04-24T09:06:17;14.20;99.90
36586;DHT22;22591;48.314;11.562;2023-04-24T09:08:45;14.20;99.90
36586;DHT22;22591;48.314;11.562;2023-04-24T09:11:11;14.20;99.90
36586;DHT22;22591;48.314;11.562;2023-04-24T09:13:37;14.30;99.90
36586;DHT22;22591;48.314;11.562;2023-04-24T09:16:03;14.40;99.90
36586;DHT22;22591;48.314;11.562;2023-04-24T09:18:28;14.30;99.90
36586;DHT22;22591;48.314;11.562;2023-04-24T09:21:02;14.40;99.90
36586;DHT22;22591;48.314;11.562;2023-04-24T09:23:31;14.30;99.90
36586;DHT22;22591;48.314;11.562;2023-04-24T09:25:58;14.30;99.90
36586;DHT22;22591;48.314;11.562;2023-04-24T09:28:27;14.50;99.90
36586;DHT22;22591;48.314;11.562;2023-04-24T09:33:33;14.70;99.70
36586;DHT22;22591;48.314;11.562;2023-04-24T09:35:58;14.60;98.50
36586;DHT22;22591;48.314;11.562;2023-04-24T09:38:37;14.40;98.40
36586;DHT22;22591;48.314;11.562;2023-04-24T09:41:06;14.30;97.80
36586;DHT22;22591;48.314;11.562;2023-04-24T09:43:32;14.40;98.50
36586;DHT22;22591;48.314;11.562;2023-04-24T09:45:58;14.60;98.60
36586;DHT22;22591;48.314;11.562;2023-04-24T09:48:35;14.70;97.20
36586;DHT22;22591;48.314;11.562;2023-04-24T09:51:02;14.80;96.60
36586;DHT22;22591;48.314;11.562;2023-04-24T09:53:29;14.80;96.20
36586;DHT22;22591;48.314;11.562;2023-04-24T09:55:56;14.80;95.60
36586;DHT22;22591;48.314;11.562;2023-04-24T09:58:25;14.70;95.60
36586;DHT22;22591;48.314;11.562;2023-04-24T10:00:54;14.90;96.30
36586;DHT22;22591;48.314;11.562;2023-04-24T10:03:21;15.20;95.40
36586;DHT22;22591;48.314;11.562;2023-04-24T10:05:47;15.20;95.00
36586;DHT22;22591;48.314;11.562;2023-04-24T10:08:13;15.20;94.00
36586;DHT22;22591;48.314;11.562;2023-04-24T10:10:40;15.20;94.40
36586;DHT22;22591;48.314;11.562;2023-04-24T10:13:07;15.50;94.70
36586;DHT22;22591;48.314;11.562;2023-04-24T10:15:34;15.60;94.90
36586;DHT22;22591;48.314;11.562;2023-04-24T10:18:01;15.70;93.90
36586;DHT22;22591;48.314;11.562;2023-04-24T10:20:29;15.70;93.80
36586;DHT22;22591;48.314;11.562;2023-04-24T10:22:57;15.90;93.50
36586;DHT22;22591;48.314;11.562;2023-04-24T10:25:28;16.30;94.00
36586;DHT22;22591;48.314;11.562;2023-04-24T10:27:55;16.80;93.10
36586;DHT22;22591;48.314;11.562;2023-04-24T10:30:23;16.70;93.00
36586;DHT22;22591;48.314;11.562;2023-04-24T10:32:49;16.80;92.20
36586;DHT22;22591;48.314;11.562;2023-04-24T10:35:15;16.90;92.30
36586;DHT22;22591;48.314;11.562;2023-04-24T10:37:48;17.10;91.20
36586;DHT22;22591;48.314;11.562;2023-04-24T10:40:29;17.20;90.10
36586;DHT22;22591;48.314;11.562;2023-04-24T10:42:56;17.10;90.10
36586;DHT22;22591;48.314;11.562;2023-04-24T10:45:22;16.90;90.70
36586;DHT22;22591;48.314;11.562;2023-04-24T10:47:58;16.80;90.20
36586;DHT22;22591;48.314;11.562;2023-04-24T10:50:27;17.00;89.80
36586;DHT22;22591;48.314;11.562;2023-04-24T10:52:53;17.10;89.90
36586;DHT22;22591;48.314;11.562;2023-04-24T10:55:47;17.40;89.30
36586;DHT22;22591;48.314;11.562;2023-04-24T10:58:14;17.30;89.10
36586;DHT22;22591;48.314;11.562;2023-04-24T11:00:42;16.90;90.40
36586;DHT22;22591;48.314;11.562;2023-04-24T11:03:24;16.20;92.00
36586;DHT22;22591;48.314;11.562;2023-04-24T11:08:29;15.00;92.90
36586;DHT22;22591;48.314;11.562;2023-04-24T11:10:57;14.60;93.20
36586;DHT22;22591;48.314;11.562;2023-04-24T11:13:25;14.20;93.70
36586;DHT22;22591;48.314;11.562;2023-04-24T11:22:02;13.30;96.70
36586;DHT22;22591;48.314;11.562;2023-04-24T11:29:39;12.80;98.10
36586;DHT22;22591;48.314;11.562;2023-04-24T11:35:04;12.80;97.10
36586;DHT22;22591;48.314;11.562;2023-04-24T11:37:36;12.70;97.50
36586;DHT22;22591;48.314;11.562;2023-04-24T11:40:03;12.50;98.10
36586;DHT22;22591;48.314;11.562;2023-04-24T11:42:37;12.40;98.60
36586;DHT22;22591;48.314;11.562;2023-04-24T11:45:08;12.40;99.00
36586;DHT22;22591;48.314;11.562;2023-04-24T11:47:34;12.60;98.40
36586;DHT22;22591;48.314;11.562;2023-04-24T11:50:00;13.00;97.50
36586;DHT22;22591;48.314;11.562;2023-04-24T11:52:27;13.40;96.70
36586;DHT22;22591;48.314;11.562;2023-04-24T11:54:53;13.90;96.10
36586;DHT22;22591;48.314;11.562;2023-04-24T11:57:20;14.30;95.00
36586;DHT22;22591;48.314;11.562;2023-04-24T11:59:47;14.60;94.20
36586;DHT22;22591;48.314;11.562;2023-04-24T12:02:25;14.80;94.30
36586;DHT22;22591;48.314;11.562;2023-04-24T12:04:54;15.00;93.00
36586;DHT22;22591;48.314;11.562;2023-04-24T12:07:21;15.00;93.70
36586;DHT22;22591;48.314;11.562;2023-04-24T12:09:49;15.30;94.00
36586;DHT22;22591;48.314;11.562;2023-04-24T12:12:19;15.40;93.40
36586;DHT22;22591;48.314;11.562;2023-04-24T12:14:58;15.50;93.50
36586;DHT22;22591;48.314;11.562;2023-04-24T12:17:34;15.40;93.30
36586;DHT22;22591;48.314;11.562;2023-04-24T12:20:04;15.30;93.10
36586;DHT22;22591;48.314;11.562;2023-04-24T12:22:55;15.50;91.10
36586;DHT22;22591;48.314;11.562;2023-04-24T12:25:27;15.50;89.90
36586;DHT22;22591;48.314;11.562;2023-04-24T12:27:54;15.40;89.30
36586;DHT22;22591;48.314;11.562;2023-04-24T12:30:20;15.50;87.50
36586;DHT22;22591;48.314;11.562;2023-04-24T12:32:49;15.80;86.30
36586;DHT22;22591;48.314;11.562;2023-04-24T12:35:21;15.90;84.10
36586;DHT22;22591;48.314;11.562;2023-04-24T12:37:47;15.90;81.60
36586;DHT22;22591;48.314;11.562;2023-04-24T12:40:14;15.80;82.90
36586;DHT22;22591;48.314;11.562;2023-04-24T12:42:45;16.30;82.60
36586;DHT22;22591;48.314;11.562;2023-04-24T12:45:11;16.60;80.20
36586;DHT22;22591;48.314;11.562;2023-04-24T12:47:41;16.80;79.70
36586;DHT22;22591;48.314;11.562;2023-04-24T12:50:11;16.50;80.00
36586;DHT22;22591;48.314;11.562;2023-04-24T12:52:37;16.00;83.30
36586;DHT22;22591;48.314;11.562;2023-04-24T12:55:03;15.80;83.00
36586;DHT22;22591;48.314;11.562;2023-04-24T12:57:31;15.70;82.80
36586;DHT22;22591;48.314;11.562;2023-04-24T12:59:58;15.90;80.50
36586;DHT22;22591;48.314;11.562;2023-04-24T13:02:30;16.20;78.40
36586;DHT22;22591;48.314;11.562;2023-04-24T13:04:57;16.40;79.10
36586;DHT22;22591;48.314;11.562;2023-04-24T13:07:23;16.60;79.20
36586;DHT22;22591;48.314;11.562;2023-04-24T13:09:50;16.60;80.80
36586;DHT22;22591;48.314;11.562;2023-04-24T13:12:16;16.40;82.00
36586;DHT22;22591;48.314;11.562;2023-04-24T13:14:41;16.20;82.30
36586;DHT22;22591;48.314;11.562;2023-04-24T13:17:07;16.30;82.30
36586;DHT22;22591;48.314;11.562;2023-04-24T13:19:37;16.10;80.10
36586;DHT22;22591;48.314;11.562;2023-04-24T13:22:03;15.90;80.30
36586;DHT22;22591;48.314;11.562;2023-04-24T13:24:29;15.80;81.40
36586;DHT22;22591;48.314;11.562;2023-04-24T13:26:56;16.00;78.40
36586;DHT22;22591;48.314;11.562;2023-04-24T13:29:22;15.80;78.80
36586;DHT22;22591;48.314;11.562;2023-04-24T13:31:50;16.00;79.50
36586;DHT22;22591;48.314;11.562;2023-04-24T13:34:16;16.20;77.40
36586;DHT22;22591;48.314;11.562;2023-04-24T13:36:42;16.40;78.70
36586;DHT22;22591;48.314;11.562;2023-04-24T13:39:08;16.30;77.60
36586;DHT22;22591;48.314;11.562;2023-04-24T13:41:34;16.40;79.20
36586;DHT22;22591;48.314;11.562;2023-04-24T13:44:00;16.60;77.50
36586;DHT22;22591;48.314;11.562;2023-04-24T13:46:26;16.40;77.50
36586;DHT22;22591;48.314;11.562;2023-04-24T13:48:51;16.20;78.50
36586;DHT22;22591;48.314;11.562;2023-04-24T13:51:18;15.80;78.60
36586;DHT22;22591;48.314;11.562;2023-04-24T13:53:43;15.80;79.60
36586;DHT22;22591;48.314;11.562;2023-04-24T13:56:09;15.60;78.60
36586;DHT22;22591;48.314;11.562;2023-04-24T13:58:35;15.60;78.30
36586;DHT22;22591;48.314;11.562;2023-04-24T14:01:04;15.40;77.50
36586;DHT22;22591;48.314;11.562;2023-04-24T14:03:30;15.30;76.60
36586;DHT22;22591;48.314;11.562;2023-04-24T14:05:55;15.20;77.10
36586;DHT22;22591;48.314;11.562;2023-04-24T14:08:21;15.50;75.20
36586;DHT22;22591;48.314;11.562;2023-04-24T14:10:47;15.60;75.80
36586;DHT22;22591;48.314;11.562;2023-04-24T14:13:13;15.70;75.00
36586;DHT22;22591;48.314;11.562;2023-04-24T14:15:38;16.10;74.40
36586;DHT22;22591;48.314;11.562;2023-04-24T14:18:04;16.10;73.20
36586;DHT22;22591;48.314;11.562;2023-04-24T14:20:30;16.10;71.80
36586;DHT22;22591;48.314;11.562;2023-04-24T14:22:56;15.90;72.80
36586;DHT22;22591;48.314;11.562;2023-04-24T14:25:24;15.90;73.50
36586;DHT22;22591;48.314;11.562;2023-04-24T14:27:50;16.20;72.50
36586;DHT22;22591;48.314;11.562;2023-04-24T14:30:16;16.40;71.80
36586;DHT22;22591;48.314;11.562;2023-04-24T14:32:41;16.50;70.40
36586;DHT22;22591;48.314;11.562;2023-04-24T14:35:07;16.30;69.80
36586;DHT22;22591;48.314;11.562;2023-04-24T14:37:33;16.10;70.40
36586;DHT22;22591;48.314;11.562;2023-04-24T14:39:58;15.90;70.60
36586;DHT22;22591;48.314;11.562;2023-04-24T14:42:24;15.60;69.70
36586;DHT22;22591;48.314;11.562;2023-04-24T14:44:49;15.40;72.30
36586;DHT22;22591;48.314;11.562;2023-04-24T14:47:15;15.10;75.70
36586;DHT22;22591;48.314;11.562;2023-04-24T14:49:43;15.00;76.40
36586;DHT22;22591;48.314;11.562;2023-04-24T14:52:09;14.90;76.90
36586;DHT22;22591;48.314;11.562;2023-04-24T14:54:35;14.70;78.30
36586;DHT22;22591;48.314;11.562;2023-04-24T14:57:01;14.90;78.10
36586;DHT22;22591;48.314;11.562;2023-04-24T14:59:28;14.90;77.30
36586;DHT22;22591;48.314;11.562;2023-04-24T15:01:54;14.90;76.90
36586;DHT22;22591;48.314;11.562;2023-04-24T15:04:26;14.80;76.30
36586;DHT22;22591;48.314;11.562;2023-04-24T15:06:52;14.80;75.80
36586;DHT22;22591;48.314;11.562;2023-04-24T15:09:22;15.00;74.70
36586;DHT22;22591;48.314;11.562;2023-04-24T15:11:49;15.00;75.20
36586;DHT22;22591;48.314;11.562;2023-04-24T15:14:15;14.90;74.60
36586;DHT22;22591;48.314;11.562;2023-04-24T15:16:41;15.00;74.40
36586;DHT22;22591;48.314;11.562;2023-04-24T15:19:07;15.00;74.50
36586;DHT22;22591;48.314;11.562;2023-04-24T15:21:32;14.90;75.30
36586;DHT22;22591;48.314;11.562;2023-04-24T15:23:58;14.90;76.00
36586;DHT22;22591;48.314;11.562;2023-04-24T15:26:24;14.80;74.30
36586;DHT22;22591;48.314;11.562;2023-04-24T15:28:51;14.70;75.80
36586;DHT22;22591;48.314;11.562;2023-04-24T15:31:17;14.70;75.00
36586;DHT22;22591;48.314;11.562;2023-04-24T15:33:43;14.90;74.80
36586;DHT22;22591;48.314;11.562;2023-04-24T15:36:08;15.00;74.10